sensor_id;sensor_type;location;lat;lon;timestamp;P1;durP1;ratioP1;P2;durP2;ratioP2
65420;SDS011;52028;50.658;14.004;2022-09-29T00:01:29;17.60;;;8.93;;
65420;SDS011;52028;50.658;14.004;2022-09-29T00:03:56;15.13;;;8.00;;
65420;SDS011;52028;50.658;14.004;2022-09-29T00:06:21;16.45;;;8.85;;
65420;SDS011;52028;50.658;14.004;2022-09-29T00:08:47;14.93;;;7.90;;
65420;SDS011;52028;50.658;14.004;2022-09-29T00:11:14;14.30;;;7.97;;
65420;SDS011;52028;50.658;14.004;2022-09-29T00:13:42;15.00;;;7.70;;
65420;SDS011;52028;50.658;14.004;2022-09-29T00:16:08;13.48;;;7.60;;
65420;SDS011;52028;50.658;14.004;2022-09-29T00:18:35;14.77;;;7.93;;
65420;SDS011;52028;50.658;14.004;2022-09-29T00:21:02;19.08;;;8.68;;
65420;SDS011;52028;50.658;14.004;2022-09-29T00:23:32;17.75;;;8.38;;
65420;SDS011;52028;50.658;14.004;2022-09-29T00:25:59;14.38;;;6.95;;
65420;SDS011;52028;50.658;14.004;2022-09-29T00:28:25;14.80;;;8.00;;
65420;SDS011;52028;50.658;14.004;2022-09-29T00:30:54;11.77;;;7.57;;
65420;SDS011;52028;50.658;14.004;2022-09-29T00:33:19;14.90;;;7.50;;
65420;SDS011;52028;50.658;14.004;2022-09-29T00:35:54;17.65;;;8.88;;
65420;SDS011;52028;50.658;14.004;2022-09-29T00:38:22;16.90;;;8.32;;
65420;SDS011;52028;50.658;14.004;2022-09-29T00:40:48;17.75;;;9.65;;
65420;SDS011;52028;50.658;14.004;2022-09-29T00:43:18;20.67;;;9.48;;
65420;SDS011;52028;50.658;14.004;2022-09-29T00:45:46;23.63;;;9.82;;
65420;SDS011;52028;50.658;14.004;2022-09-29T00:48:13;22.85;;;9.90;;
65420;SDS011;52028;50.658;14.004;2022-09-29T00:50:51;24.20;;;10.70;;
65420;SDS011;52028;50.658;14.004;2022-09-29T00:53:19;18.50;;;9.07;;
65420;SDS011;52028;50.658;14.004;2022-09-29T00:55:50;24.48;;;9.82;;
65420;SDS011;52028;50.658;14.004;2022-09-29T00:58:32;25.50;;;10.00;;
65420;SDS011;52028;50.658;14.004;2022-09-29T01:01:03;22.88;;;8.88;;
65420;SDS011;52028;50.658;14.004;2022-09-29T01:03:32;39.17;;;10.27;;
65420;SDS011;52028;50.658;14.004;2022-09-29T01:06:08;32.97;;;10.68;;
65420;SDS011;52028;50.658;14.004;2022-09-29T01:08:50;54.75;;;11.68;;
65420;SDS011;52028;50.658;14.004;2022-09-29T01:11:21;55.42;;;11.60;;
65420;SDS011;52028;50.658;14.004;2022-09-29T01:13:48;40.92;;;12.52;;
65420;SDS011;52028;50.658;14.004;2022-09-29T01:16:14;26.98;;;11.65;;
65420;SDS011;52028;50.658;14.004;2022-09-29T01:18:39;44.00;;;10.90;;
65420;SDS011;52028;50.658;14.004;2022-09-29T01:21:16;76.13;;;13.07;;
65420;SDS011;52028;50.658;14.004;2022-09-29T01:27:04;35.30;;;9.10;;
65420;SDS011;52028;50.658;14.004;2022-09-29T01:41:50;101.40;;;11.75;;
65420;SDS011;52028;50.658;14.004;2022-09-29T01:44:22;104.53;;;13.10;;
65420;SDS011;52028;50.658;14.004;2022-09-29T01:49:46;43.47;;;10.85;;
65420;SDS011;52028;50.658;14.004;2022-09-29T01:52:20;53.72;;;11.00;;
65420;SDS011;52028;50.658;14.004;2022-09-29T02:00:01;71.10;;;12.45;;
65420;SDS011;52028;50.658;14.004;2022-09-29T02:02:39;66.43;;;12.70;;
65420;SDS011;52028;50.658;14.004;2022-09-29T02:05:24;43.80;;;11.55;;
65420;SDS011;52028;50.658;14.004;2022-09-29T02:08:10;69.60;;;12.60;;
65420;SDS011;52028;50.658;14.004;2022-09-29T02:10:50;54.97;;;11.10;;
65420;SDS011;52028;50.658;14.004;2022-09-29T02:13:25;93.10;;;12.80;;
65420;SDS011;52028;50.658;14.004;2022-09-29T02:15:54;65.22;;;11.52;;
65420;SDS011;52028;50.658;14.004;2022-09-29T02:18:22;74.25;;;12.95;;
65420;SDS011;52028;50.658;14.004;2022-09-29T02:20:51;94.28;;;12.07;;
65420;SDS011;52028;50.658;14.004;2022-09-29T02:23:16;93.47;;;12.55;;
65420;SDS011;52028;50.658;14.004;2022-09-29T02:25:42;58.92;;;10.77;;
65420;SDS011;52028;50.658;14.004;2022-09-29T02:28:08;78.50;;;12.68;;
65420;SDS011;52028;50.658;14.004;2022-09-29T02:30:34;74.07;;;11.88;;
65420;SDS011;52028;50.658;14.004;2022-09-29T02:32:59;48.20;;;10.95;;
65420;SDS011;52028;50.658;14.004;2022-09-29T02:35:28;32.85;;;10.07;;
65420;SDS011;52028;50.658;14.004;2022-09-29T02:46:40;54.55;;;11.73;;
65420;SDS011;52028;50.658;14.004;2022-09-29T02:55:12;51.85;;;10.98;;
65420;SDS011;52028;50.658;14.004;2022-09-29T02:58:10;51.03;;;12.30;;
65420;SDS011;52028;50.658;14.004;2022-09-29T03:00:42;54.17;;;12.25;;
65420;SDS011;52028;50.658;14.004;2022-09-29T03:03:09;43.45;;;10.73;;
65420;SDS011;52028;50.658;14.004;2022-09-29T03:05:35;39.25;;;11.23;;
65420;SDS011;52028;50.658;14.004;2022-09-29T03:08:00;33.83;;;10.32;;
65420;SDS011;52028;50.658;14.004;2022-09-29T03:10:26;27.65;;;9.65;;
65420;SDS011;52028;50.658;14.004;2022-09-29T03:12:51;32.13;;;9.30;;
65420;SDS011;52028;50.658;14.004;2022-09-29T03:15:17;34.33;;;9.52;;
65420;SDS011;52028;50.658;14.004;2022-09-29T03:17:43;40.42;;;11.88;;
65420;SDS011;52028;50.658;14.004;2022-09-29T03:20:09;56.05;;;10.13;;
65420;SDS011;52028;50.658;14.004;2022-09-29T03:22:35;43.58;;;11.10;;
65420;SDS011;52028;50.658;14.004;2022-09-29T03:25:01;58.38;;;9.40;;
65420;SDS011;52028;50.658;14.004;2022-09-29T03:27:27;45.47;;;10.10;;
65420;SDS011;52028;50.658;14.004;2022-09-29T03:29:54;35.50;;;8.77;;
65420;SDS011;52028;50.658;14.004;2022-09-29T03:32:19;30.35;;;8.32;;
65420;SDS011;52028;50.658;14.004;2022-09-29T03:34:45;26.02;;;8.65;;
65420;SDS011;52028;50.658;14.004;2022-09-29T03:37:11;35.78;;;9.02;;
65420;SDS011;52028;50.658;14.004;2022-09-29T03:39:36;23.48;;;8.80;;
65420;SDS011;52028;50.658;14.004;2022-09-29T03:42:02;20.60;;;7.85;;
65420;SDS011;52028;50.658;14.004;2022-09-29T03:44:27;30.20;;;8.25;;
65420;SDS011;52028;50.658;14.004;2022-09-29T03:46:53;25.00;;;8.07;;
65420;SDS011;52028;50.658;14.004;2022-09-29T03:49:18;36.00;;;9.65;;
65420;SDS011;52028;50.658;14.004;2022-09-29T03:51:44;32.65;;;9.38;;
65420;SDS011;52028;50.658;14.004;2022-09-29T03:54:09;36.25;;;9.02;;
65420;SDS011;52028;50.658;14.004;2022-09-29T03:56:35;30.63;;;9.00;;
65420;SDS011;52028;50.658;14.004;2022-09-29T03:59:02;43.20;;;10.57;;
65420;SDS011;52028;50.658;14.004;2022-09-29T04:01:29;31.63;;;9.73;;
65420;SDS011;52028;50.658;14.004;2022-09-29T04:03:56;28.17;;;9.40;;
65420;SDS011;52028;50.658;14.004;2022-09-29T04:06:22;37.75;;;9.07;;
65420;SDS011;52028;50.658;14.004;2022-09-29T04:08:47;33.78;;;10.13;;
65420;SDS011;52028;50.658;14.004;2022-09-29T04:11:13;33.50;;;10.18;;
65420;SDS011;52028;50.658;14.004;2022-09-29T04:13:38;27.67;;;10.07;;
65420;SDS011;52028;50.658;14.004;2022-09-29T04:16:04;27.27;;;9.32;;
65420;SDS011;52028;50.658;14.004;2022-09-29T04:18:30;36.70;;;9.10;;
65420;SDS011;52028;50.658;14.004;2022-09-29T04:21:03;21.15;;;8.35;;
65420;SDS011;52028;50.658;14.004;2022-09-29T04:23:29;36.65;;;9.10;;
65420;SDS011;52028;50.658;14.004;2022-09-29T04:25:57;30.25;;;9.52;;
65420;SDS011;52028;50.658;14.004;2022-09-29T04:28:23;32.45;;;10.48;;
65420;SDS011;52028;50.658;14.004;2022-09-29T04:30:49;27.73;;;10.43;;
65420;SDS011;52028;50.658;14.004;2022-09-29T04:33:16;23.25;;;9.48;;
65420;SDS011;52028;50.658;14.004;2022-09-29T04:35:43;19.60;;;7.68;;
65420;SDS011;52028;50.658;14.004;2022-09-29T04:38:10;13.40;;;6.78;;
65420;SDS011;52028;50.658;14.004;2022-09-29T04:40:36;15.65;;;7.35;;
65420;SDS011;52028;50.658;14.004;2022-09-29T04:43:03;15.02;;;7.03;;
65420;SDS011;52028;50.658;14.004;2022-09-29T04:45:29;19.83;;;8.27;;
65420;SDS011;52028;50.658;14.004;2022-09-29T04:47:55;18.50;;;8.25;;
65420;SDS011;52028;50.658;14.004;2022-09-29T04:50:21;17.75;;;7.82;;
65420;SDS011;52028;50.658;14.004;2022-09-29T04:52:47;25.27;;;9.40;;
65420;SDS011;52028;50.658;14.004;2022-09-29T04:55:12;23.80;;;9.27;;
65420;SDS011;52028;50.658;14.004;2022-09-29T04:57:39;20.42;;;9.63;;
65420;SDS011;52028;50.658;14.004;2022-09-29T05:00:06;28.30;;;11.75;;
65420;SDS011;52028;50.658;14.004;2022-09-29T05:02:33;22.90;;;9.98;;
65420;SDS011;52028;50.658;14.004;2022-09-29T05:04:59;26.48;;;11.70;;
65420;SDS011;52028;50.658;14.004;2022-09-29T05:07:24;36.33;;;11.20;;
65420;SDS011;52028;50.658;14.004;2022-09-29T05:09:50;21.88;;;8.77;;
65420;SDS011;52028;50.658;14.004;2022-09-29T05:12:15;22.92;;;8.75;;
65420;SDS011;52028;50.658;14.004;2022-09-29T05:14:40;22.77;;;10.00;;
65420;SDS011;52028;50.658;14.004;2022-09-29T05:17:06;28.95;;;10.88;;
65420;SDS011;52028;50.658;14.004;2022-09-29T05:19:31;23.35;;;9.10;;
65420;SDS011;52028;50.658;14.004;2022-09-29T05:21:57;37.95;;;9.55;;
65420;SDS011;52028;50.658;14.004;2022-09-29T05:24:23;30.90;;;8.40;;
65420;SDS011;52028;50.658;14.004;2022-09-29T05:26:49;27.58;;;8.65;;
65420;SDS011;52028;50.658;14.004;2022-09-29T05:29:15;28.33;;;9.02;;
65420;SDS011;52028;50.658;14.004;2022-09-29T05:31:50;25.80;;;7.70;;
65420;SDS011;52028;50.658;14.004;2022-09-29T05:34:16;29.25;;;8.85;;
65420;SDS011;52028;50.658;14.004;2022-09-29T05:36:41;42.63;;;9.18;;
65420;SDS011;52028;50.658;14.004;2022-09-29T05:39:07;18.33;;;8.35;;
65420;SDS011;52028;50.658;14.004;2022-09-29T05:41:33;21.67;;;8.10;;
65420;SDS011;52028;50.658;14.004;2022-09-29T05:43:59;19.42;;;8.32;;
65420;SDS011;52028;50.658;14.004;2022-09-29T05:46:26;31.35;;;11.00;;
65420;SDS011;52028;50.658;14.004;2022-09-29T05:48:51;32.25;;;10.60;;
65420;SDS011;52028;50.658;14.004;2022-09-29T05:51:18;42.83;;;10.45;;
65420;SDS011;52028;50.658;14.004;2022-09-29T05:53:45;22.95;;;10.10;;
65420;SDS011;52028;50.658;14.004;2022-09-29T05:56:14;34.20;;;9.75;;
65420;SDS011;52028;50.658;14.004;2022-09-29T05:58:43;27.85;;;9.93;;
65420;SDS011;52028;50.658;14.004;2022-09-29T06:01:10;47.50;;;10.02;;
65420;SDS011;52028;50.658;14.004;2022-09-29T06:03:38;40.93;;;17.43;;
65420;SDS011;52028;50.658;14.004;2022-09-29T06:06:08;31.60;;;12.68;;
65420;SDS011;52028;50.658;14.004;2022-09-29T06:08:35;29.90;;;11.30;;
65420;SDS011;52028;50.658;14.004;2022-09-29T06:11:05;26.30;;;11.00;;
65420;SDS011;52028;50.658;14.004;2022-09-29T06:13:39;25.33;;;11.57;;
65420;SDS011;52028;50.658;14.004;2022-09-29T06:18:32;23.35;;;10.40;;
65420;SDS011;52028;50.658;14.004;2022-09-29T06:21:11;20.35;;;10.32;;
65420;SDS011;52028;50.658;14.004;2022-09-29T06:23:40;27.63;;;11.63;;
65420;SDS011;52028;50.658;14.004;2022-09-29T06:26:07;22.30;;;11.70;;
65420;SDS011;52028;50.658;14.004;2022-09-29T06:28:35;22.05;;;10.05;;
65420;SDS011;52028;50.658;14.004;2022-09-29T06:31:04;30.90;;;12.13;;
65420;SDS011;52028;50.658;14.004;2022-09-29T06:33:32;25.10;;;11.13;;
65420;SDS011;52028;50.658;14.004;2022-09-29T06:35:59;24.65;;;10.77;;
65420;SDS011;52028;50.658;14.004;2022-09-29T06:38:47;25.25;;;10.63;;
65420;SDS011;52028;50.658;14.004;2022-09-29T06:41:13;21.90;;;11.10;;
65420;SDS011;52028;50.658;14.004;2022-09-29T06:43:39;27.60;;;11.25;;
65420;SDS011;52028;50.658;14.004;2022-09-29T06:46:05;26.42;;;11.45;;
65420;SDS011;52028;50.658;14.004;2022-09-29T06:48:31;32.38;;;14.80;;
65420;SDS011;52028;50.658;14.004;2022-09-29T06:50:56;36.17;;;15.38;;
65420;SDS011;52028;50.658;14.004;2022-09-29T06:53:23;32.85;;;14.13;;
65420;SDS011;52028;50.658;14.004;2022-09-29T06:55:53;32.72;;;13.20;;
65420;SDS011;52028;50.658;14.004;2022-09-29T06:58:20;47.35;;;15.15;;
65420;SDS011;52028;50.658;14.004;2022-09-29T07:00:49;32.80;;;13.20;;
65420;SDS011;52028;50.658;14.004;2022-09-29T07:03:14;36.65;;;17.17;;
65420;SDS011;52028;50.658;14.004;2022-09-29T07:05:40;33.95;;;15.38;;
65420;SDS011;52028;50.658;14.004;2022-09-29T07:08:05;36.95;;;15.75;;
65420;SDS011;52028;50.658;14.004;2022-09-29T07:10:31;37.53;;;15.25;;
65420;SDS011;52028;50.658;14.004;2022-09-29T07:12:56;31.15;;;13.75;;
65420;SDS011;52028;50.658;14.004;2022-09-29T07:15:22;33.13;;;15.43;;
65420;SDS011;52028;50.658;14.004;2022-09-29T07:17:58;32.00;;;14.07;;
65420;SDS011;52028;50.658;14.004;2022-09-29T07:20:26;35.92;;;15.68;;
65420;SDS011;52028;50.658;14.004;2022-09-29T07:22:52;36.72;;;15.13;;
65420;SDS011;52028;50.658;14.004;2022-09-29T07:25:17;37.13;;;15.43;;
65420;SDS011;52028;50.658;14.004;2022-09-29T07:27:43;57.72;;;18.02;;
65420;SDS011;52028;50.658;14.004;2022-09-29T07:30:09;36.30;;;16.83;;
65420;SDS011;52028;50.658;14.004;2022-09-29T07:32:34;34.20;;;16.98;;
65420;SDS011;52028;50.658;14.004;2022-09-29T07:35:00;44.47;;;16.20;;
65420;SDS011;52028;50.658;14.004;2022-09-29T07:37:26;36.15;;;14.38;;
65420;SDS011;52028;50.658;14.004;2022-09-29T07:39:51;29.13;;;13.30;;
65420;SDS011;52028;50.658;14.004;2022-09-29T07:42:18;29.80;;;12.75;;
65420;SDS011;52028;50.658;14.004;2022-09-29T07:44:45;32.75;;;13.95;;
65420;SDS011;52028;50.658;14.004;2022-09-29T07:47:10;27.52;;;13.02;;
65420;SDS011;52028;50.658;14.004;2022-09-29T07:49:36;23.80;;;12.57;;
65420;SDS011;52028;50.658;14.004;2022-09-29T07:52:01;26.63;;;11.55;;
65420;SDS011;52028;50.658;14.004;2022-09-29T07:54:26;28.55;;;13.57;;
65420;SDS011;52028;50.658;14.004;2022-09-29T07:56:52;22.75;;;11.88;;
65420;SDS011;52028;50.658;14.004;2022-09-29T07:59:17;22.85;;;11.50;;
65420;SDS011;52028;50.658;14.004;2022-09-29T08:01:42;25.42;;;11.05;;
65420;SDS011;52028;50.658;14.004;2022-09-29T08:04:08;21.20;;;10.70;;
65420;SDS011;52028;50.658;14.004;2022-09-29T08:06:34;21.85;;;10.90;;
65420;SDS011;52028;50.658;14.004;2022-09-29T08:09:00;22.58;;;10.98;;
65420;SDS011;52028;50.658;14.004;2022-09-29T08:11:26;18.20;;;10.35;;
65420;SDS011;52028;50.658;14.004;2022-09-29T08:13:52;21.77;;;10.57;;
65420;SDS011;52028;50.658;14.004;2022-09-29T08:16:17;21.83;;;10.18;;
65420;SDS011;52028;50.658;14.004;2022-09-29T08:18:43;22.45;;;11.60;;
65420;SDS011;52028;50.658;14.004;2022-09-29T08:21:09;21.95;;;11.00;;
65420;SDS011;52028;50.658;14.004;2022-09-29T08:23:39;27.75;;;11.23;;
65420;SDS011;52028;50.658;14.004;2022-09-29T08:26:07;22.38;;;10.77;;
65420;SDS011;52028;50.658;14.004;2022-09-29T08:28:35;27.35;;;12.23;;
65420;SDS011;52028;50.658;14.004;2022-09-29T08:31:09;23.70;;;11.48;;
65420;SDS011;52028;50.658;14.004;2022-09-29T08:33:39;21.17;;;10.88;;
65420;SDS011;52028;50.658;14.004;2022-09-29T08:36:05;27.98;;;12.00;;
65420;SDS011;52028;50.658;14.004;2022-09-29T08:38:39;21.63;;;11.70;;
65420;SDS011;52028;50.658;14.004;2022-09-29T08:41:14;24.45;;;11.95;;
65420;SDS011;52028;50.658;14.004;2022-09-29T08:43:47;29.65;;;12.82;;
65420;SDS011;52028;50.658;14.004;2022-09-29T08:46:20;23.77;;;12.53;;
65420;SDS011;52028;50.658;14.004;2022-09-29T08:48:52;30.48;;;12.18;;
65420;SDS011;52028;50.658;14.004;2022-09-29T08:53:52;27.10;;;12.82;;
65420;SDS011;52028;50.658;14.004;2022-09-29T08:56:19;21.52;;;12.10;;
65420;SDS011;52028;50.658;14.004;2022-09-29T08:58:47;27.25;;;13.48;;
65420;SDS011;52028;50.658;14.004;2022-09-29T09:03:59;21.13;;;11.50;;
65420;SDS011;52028;50.658;14.004;2022-09-29T09:09:49;22.08;;;10.63;;
65420;SDS011;52028;50.658;14.004;2022-09-29T09:12:18;21.38;;;11.32;;
65420;SDS011;52028;50.658;14.004;2022-09-29T09:15:07;23.25;;;10.95;;
65420;SDS011;52028;50.658;14.004;2022-09-29T09:25:27;19.35;;;9.40;;
65420;SDS011;52028;50.658;14.004;2022-09-29T09:36:33;18.63;;;9.15;;
65420;SDS011;52028;50.658;14.004;2022-09-29T09:39:12;18.80;;;8.50;;
65420;SDS011;52028;50.658;14.004;2022-09-29T09:41:38;27.60;;;10.95;;
65420;SDS011;52028;50.658;14.004;2022-09-29T09:47:01;20.65;;;9.45;;
65420;SDS011;52028;50.658;14.004;2022-09-29T09:49:40;17.35;;;9.63;;
65420;SDS011;52028;50.658;14.004;2022-09-29T09:54:51;16.00;;;9.15;;
65420;SDS011;52028;50.658;14.004;2022-09-29T10:03:00;17.23;;;9.75;;
65420;SDS011;52028;50.658;14.004;2022-09-29T10:05:31;19.23;;;10.52;;
65420;SDS011;52028;50.658;14.004;2022-09-29T10:08:02;16.60;;;8.75;;
65420;SDS011;52028;50.658;14.004;2022-09-29T10:10:29;20.67;;;10.93;;
65420;SDS011;52028;50.658;14.004;2022-09-29T10:12:56;19.20;;;9.18;;
65420;SDS011;52028;50.658;14.004;2022-09-29T10:15:37;15.13;;;8.55;;
65420;SDS011;52028;50.658;14.004;2022-09-29T10:18:16;13.48;;;8.50;;
65420;SDS011;52028;50.658;14.004;2022-09-29T10:20:47;18.48;;;10.13;;
65420;SDS011;52028;50.658;14.004;2022-09-29T10:25:58;19.30;;;10.88;;
65420;SDS011;52028;50.658;14.004;2022-09-29T10:31:31;12.77;;;8.25;;
65420;SDS011;52028;50.658;14.004;2022-09-29T10:34:00;17.27;;;8.77;;
65420;SDS011;52028;50.658;14.004;2022-09-29T10:36:53;17.38;;;8.40;;
65420;SDS011;52028;50.658;14.004;2022-09-29T10:40:00;19.27;;;9.23;;
65420;SDS011;52028;50.658;14.004;2022-09-29T10:47:16;13.20;;;7.43;;
65420;SDS011;52028;50.658;14.004;2022-09-29T10:49:43;13.00;;;7.95;;
65420;SDS011;52028;50.658;14.004;2022-09-29T10:52:42;17.88;;;8.85;;
65420;SDS011;52028;50.658;14.004;2022-09-29T10:55:01;15.00;;;7.90;;
65420;SDS011;52028;50.658;14.004;2022-09-29T10:57:31;16.60;;;8.30;;
65420;SDS011;52028;50.658;14.004;2022-09-29T10:59:58;12.10;;;7.55;;
65420;SDS011;52028;50.658;14.004;2022-09-29T11:02:31;18.70;;;9.23;;
65420;SDS011;52028;50.658;14.004;2022-09-29T11:05:01;17.55;;;7.80;;
65420;SDS011;52028;50.658;14.004;2022-09-29T11:09:56;17.38;;;8.25;;
65420;SDS011;52028;50.658;14.004;2022-09-29T11:14:53;14.60;;;8.07;;
65420;SDS011;52028;50.658;14.004;2022-09-29T11:19:47;17.80;;;9.63;;
65420;SDS011;52028;50.658;14.004;2022-09-29T11:27:58;17.98;;;8.23;;
65420;SDS011;52028;50.658;14.004;2022-09-29T11:41:16;13.63;;;7.28;;
65420;SDS011;52028;50.658;14.004;2022-09-29T11:43:51;14.05;;;7.20;;
65420;SDS011;52028;50.658;14.004;2022-09-29T11:56:52;17.27;;;9.25;;
65420;SDS011;52028;50.658;14.004;2022-09-29T11:59:32;13.23;;;7.50;;
65420;SDS011;52028;50.658;14.004;2022-09-29T12:02:36;16.27;;;7.85;;
65420;SDS011;52028;50.658;14.004;2022-09-29T12:11:03;16.35;;;7.63;;
65420;SDS011;52028;50.658;14.004;2022-09-29T12:16:12;17.10;;;8.30;;
65420;SDS011;52028;50.658;14.004;2022-09-29T12:18:45;16.52;;;8.23;;
65420;SDS011;52028;50.658;14.004;2022-09-29T12:21:15;20.48;;;8.55;;
65420;SDS011;52028;50.658;14.004;2022-09-29T12:23:47;16.30;;;7.60;;
65420;SDS011;52028;50.658;14.004;2022-09-29T12:26:17;15.65;;;8.70;;
65420;SDS011;52028;50.658;14.004;2022-09-29T12:28:48;16.55;;;8.48;;
65420;SDS011;52028;50.658;14.004;2022-09-29T12:31:49;22.73;;;8.25;;
65420;SDS011;52028;50.658;14.004;2022-09-29T12:34:21;18.65;;;8.50;;
65420;SDS011;52028;50.658;14.004;2022-09-29T12:37:12;22.25;;;9.98;;
65420;SDS011;52028;50.658;14.004;2022-09-29T12:39:48;21.63;;;8.73;;
65420;SDS011;52028;50.658;14.004;2022-09-29T12:45:27;16.75;;;7.72;;
65420;SDS011;52028;50.658;14.004;2022-09-29T12:51:27;15.65;;;8.38;;
65420;SDS011;52028;50.658;14.004;2022-09-29T12:56:40;16.15;;;8.55;;
65420;SDS011;52028;50.658;14.004;2022-09-29T12:59:12;17.92;;;8.63;;
65420;SDS011;52028;50.658;14.004;2022-09-29T13:01:53;13.57;;;7.57;;
65420;SDS011;52028;50.658;14.004;2022-09-29T13:15:08;13.05;;;6.30;;
65420;SDS011;52028;50.658;14.004;2022-09-29T13:17:51;11.80;;;5.80;;
65420;SDS011;52028;50.658;14.004;2022-09-29T13:20:57;15.48;;;6.07;;
65420;SDS011;52028;50.658;14.004;2022-09-29T13:28:56;11.90;;;5.88;;
65420;SDS011;52028;50.658;14.004;2022-09-29T13:31:27;9.88;;;5.53;;
65420;SDS011;52028;50.658;14.004;2022-09-29T13:33:56;11.88;;;5.63;;
65420;SDS011;52028;50.658;14.004;2022-09-29T13:36:31;12.80;;;5.88;;
65420;SDS011;52028;50.658;14.004;2022-09-29T13:39:04;12.00;;;5.80;;
65420;SDS011;52028;50.658;14.004;2022-09-29T13:41:33;14.93;;;6.20;;
65420;SDS011;52028;50.658;14.004;2022-09-29T13:44:25;20.67;;;6.15;;
65420;SDS011;52028;50.658;14.004;2022-09-29T13:46:53;19.53;;;5.97;;
65420;SDS011;52028;50.658;14.004;2022-09-29T13:54:20;5.60;;;3.85;;
65420;SDS011;52028;50.658;14.004;2022-09-29T13:57:02;10.57;;;4.38;;
65420;SDS011;52028;50.658;14.004;2022-09-29T13:59:44;18.77;;;5.90;;
65420;SDS011;52028;50.658;14.004;2022-09-29T14:02:36;12.65;;;5.13;;
65420;SDS011;52028;50.658;14.004;2022-09-29T14:08:06;7.20;;;3.85;;
65420;SDS011;52028;50.658;14.004;2022-09-29T14:24:51;11.23;;;4.25;;
65420;SDS011;52028;50.658;14.004;2022-09-29T14:27:29;6.10;;;3.30;;
65420;SDS011;52028;50.658;14.004;2022-09-29T14:37:45;5.25;;;3.20;;
65420;SDS011;52028;50.658;14.004;2022-09-29T14:40:16;6.25;;;3.00;;
65420;SDS011;52028;50.658;14.004;2022-09-29T14:45:38;7.53;;;3.35;;
65420;SDS011;52028;50.658;14.004;2022-09-29T14:52:04;6.85;;;4.18;;
65420;SDS011;52028;50.658;14.004;2022-09-29T15:02:15;7.18;;;4.43;;
65420;SDS011;52028;50.658;14.004;2022-09-29T15:04:44;8.35;;;4.22;;
65420;SDS011;52028;50.658;14.004;2022-09-29T15:07:29;8.23;;;4.60;;
65420;SDS011;52028;50.658;14.004;2022-09-29T15:09:58;8.15;;;4.40;;
65420;SDS011;52028;50.658;14.004;2022-09-29T15:12:27;6.72;;;3.88;;
65420;SDS011;52028;50.658;14.004;2022-09-29T15:14:54;7.38;;;4.05;;
65420;SDS011;52028;50.658;14.004;2022-09-29T15:20:21;8.10;;;3.78;;
65420;SDS011;52028;50.658;14.004;2022-09-29T15:28:02;12.20;;;5.43;;
65420;SDS011;52028;50.658;14.004;2022-09-29T15:30:33;14.93;;;7.85;;
65420;SDS011;52028;50.658;14.004;2022-09-29T15:33:13;10.00;;;5.40;;
65420;SDS011;52028;50.658;14.004;2022-09-29T15:35:41;15.05;;;5.50;;
65420;SDS011;52028;50.658;14.004;2022-09-29T15:40:34;9.13;;;4.68;;
65420;SDS011;52028;50.658;14.004;2022-09-29T15:43:09;15.93;;;7.22;;
65420;SDS011;52028;50.658;14.004;2022-09-29T15:45:51;13.43;;;7.05;;
65420;SDS011;52028;50.658;14.004;2022-09-29T15:48:20;13.65;;;6.95;;
65420;SDS011;52028;50.658;14.004;2022-09-29T15:50:45;11.32;;;5.80;;
65420;SDS011;52028;50.658;14.004;2022-09-29T15:53:10;13.77;;;5.97;;
65420;SDS011;52028;50.658;14.004;2022-09-29T15:55:36;10.68;;;5.07;;
65420;SDS011;52028;50.658;14.004;2022-09-29T15:58:02;9.85;;;4.70;;
65420;SDS011;52028;50.658;14.004;2022-09-29T16:00:50;11.73;;;4.90;;
65420;SDS011;52028;50.658;14.004;2022-09-29T16:03:23;7.95;;;4.50;;
65420;SDS011;52028;50.658;14.004;2022-09-29T16:11:03;6.85;;;4.20;;
65420;SDS011;52028;50.658;14.004;2022-09-29T16:13:33;9.75;;;4.75;;
65420;SDS011;52028;50.658;14.004;2022-09-29T16:16:04;10.73;;;5.32;;
65420;SDS011;52028;50.658;14.004;2022-09-29T16:18:35;16.70;;;5.43;;
65420;SDS011;52028;50.658;14.004;2022-09-29T16:21:06;7.10;;;4.10;;
65420;SDS011;52028;50.658;14.004;2022-09-29T16:23:41;10.43;;;4.78;;
65420;SDS011;52028;50.658;14.004;2022-09-29T16:26:20;9.77;;;4.72;;
65420;SDS011;52028;50.658;14.004;2022-09-29T16:31:37;10.23;;;4.80;;
65420;SDS011;52028;50.658;14.004;2022-09-29T16:36:52;13.75;;;7.10;;
65420;SDS011;52028;50.658;14.004;2022-09-29T16:39:19;16.08;;;7.32;;
65420;SDS011;52028;50.658;14.004;2022-09-29T16:41:47;16.95;;;7.18;;
65420;SDS011;52028;50.658;14.004;2022-09-29T16:44:34;20.65;;;9.75;;
65420;SDS011;52028;50.658;14.004;2022-09-29T16:49:44;18.98;;;9.30;;
65420;SDS011;52028;50.658;14.004;2022-09-29T16:52:16;19.35;;;8.95;;
65420;SDS011;52028;50.658;14.004;2022-09-29T16:54:51;14.80;;;7.55;;
65420;SDS011;52028;50.658;14.004;2022-09-29T16:57:28;21.73;;;8.75;;
65420;SDS011;52028;50.658;14.004;2022-09-29T16:59:59;21.73;;;8.73;;
65420;SDS011;52028;50.658;14.004;2022-09-29T17:02:29;20.65;;;8.38;;
65420;SDS011;52028;50.658;14.004;2022-09-29T17:04:54;22.38;;;8.70;;
65420;SDS011;52028;50.658;14.004;2022-09-29T17:07:21;17.17;;;6.70;;
65420;SDS011;52028;50.658;14.004;2022-09-29T17:09:50;16.90;;;8.15;;
65420;SDS011;52028;50.658;14.004;2022-09-29T17:12:19;15.68;;;7.43;;
65420;SDS011;52028;50.658;14.004;2022-09-29T17:14:46;16.73;;;8.93;;
65420;SDS011;52028;50.658;14.004;2022-09-29T17:17:17;16.70;;;7.95;;
65420;SDS011;52028;50.658;14.004;2022-09-29T17:19:46;13.15;;;7.53;;
65420;SDS011;52028;50.658;14.004;2022-09-29T17:22:29;15.57;;;7.57;;
65420;SDS011;52028;50.658;14.004;2022-09-29T17:24:59;11.55;;;6.65;;
65420;SDS011;52028;50.658;14.004;2022-09-29T17:27:25;34.33;;;16.73;;
65420;SDS011;52028;50.658;14.004;2022-09-29T17:30:10;17.00;;;9.73;;
65420;SDS011;52028;50.658;14.004;2022-09-29T17:32:41;22.35;;;11.05;;
65420;SDS011;52028;50.658;14.004;2022-09-29T17:35:11;21.08;;;11.57;;
65420;SDS011;52028;50.658;14.004;2022-09-29T17:37:38;22.90;;;12.05;;
65420;SDS011;52028;50.658;14.004;2022-09-29T17:40:11;23.20;;;12.45;;
65420;SDS011;52028;50.658;14.004;2022-09-29T17:42:44;26.63;;;11.52;;
65420;SDS011;52028;50.658;14.004;2022-09-29T17:45:12;16.65;;;9.95;;
65420;SDS011;52028;50.658;14.004;2022-09-29T17:47:43;13.30;;;7.82;;
65420;SDS011;52028;50.658;14.004;2022-09-29T17:50:31;17.58;;;9.05;;
65420;SDS011;52028;50.658;14.004;2022-09-29T17:53:00;19.27;;;11.30;;
65420;SDS011;52028;50.658;14.004;2022-09-29T17:55:28;18.55;;;10.38;;
65420;SDS011;52028;50.658;14.004;2022-09-29T17:57:54;18.27;;;9.60;;
65420;SDS011;52028;50.658;14.004;2022-09-29T18:00:22;12.90;;;8.23;;
65420;SDS011;52028;50.658;14.004;2022-09-29T18:02:49;17.77;;;8.85;;
65420;SDS011;52028;50.658;14.004;2022-09-29T18:05:16;14.80;;;7.97;;
65420;SDS011;52028;50.658;14.004;2022-09-29T18:07:49;18.60;;;8.73;;
65420;SDS011;52028;50.658;14.004;2022-09-29T18:10:20;14.38;;;8.38;;
65420;SDS011;52028;50.658;14.004;2022-09-29T18:12:50;14.02;;;8.32;;
65420;SDS011;52028;50.658;14.004;2022-09-29T18:15:15;16.25;;;8.13;;
65420;SDS011;52028;50.658;14.004;2022-09-29T18:17:41;11.93;;;8.30;;